首页
METAR-TAF:

METAR-TAF

机场 :

埃爾津, 土耳其

纬度: 39-44N, 经度: 039-30E, 海拔: 1156米

当前天气观测

该预报发布于32分钟前的10:50 UTC
风速9节,风向,在南转南东西南之间变化
温度 27°C
湿度 26%
气压 1012 hPa
能见度10公里或以上
少量云层高于4500英尺

METAR: LTCD 151050Z 19009KT 160V220 9999 FEW045 27/06 Q1012 NOSIG

时间: 14:22 (11:22 UTC)

预报

该预报发布于3小时和42分钟前的07:40 UTC
预报有效从15日的 09点(UTC)到 15日的 18点(UTC)
风速2节,风向多变
能见度10公里或以上
少量云层高于4500英尺
成为
从 15日的 09点(UTC)到 15日的 12点(UTC)
风速15节,风向
短暂存在
从 15日的 12点(UTC)到 15日的 15点(UTC)
风速15节,风向,有时为25节阵风

TAF: LTCD 150740Z 1509/1518 VRB02KT 9999 FEW045 BECMG 1509/1512 36015KT TEMPO 1512/1515 36015G25KT

超过4000个机场的气象观测和天气预报(METAR&TAF报告)。

可查询的气象台以黄色和红色小点在地图上表示。

将鼠标移到小点上方,可查看气象台名称。

然后点击查看天气观测和预报。

如需切换地图:点击带黑十字的绿色按钮放大地图;点击带横线的绿色按钮缩小地图;或者点击绿色箭头查看邻近地区的地图。


METAR-TAF: